Time;durP1;ratioP1;P1;durP2;ratioP2;P2;SDS_P1;SDS_P2;PMS_P1;PMS_P2;Temp;Humidity;BMP_temperature;BMP_pressure;BME280_temperature;BME280_humidity;BME280_pressure;Samples;Min_cycle;Max_cycle;Signal;HPM_P1;HPM_P2
2023/01/02 00:00:20;;;;;;;27.73;12.30;;;;;;;13.60;100.00;100917.59;5022924;28;20159;-73
2023/01/02 00:02:45;;;;;;;26.45;10.18;;;;;;;13.53;100.00;100924.41;5023134;28;20068;-72
2023/01/02 00:05:11;;;;;;;32.05;10.07;;;;;;;13.46;100.00;100915.13;5005547;28;20089;-72
2023/01/02 00:07:37;;;;;;;21.55;10.55;;;;;;;13.69;100.00;100908.03;5041884;28;20049;-72
2023/01/02 00:10:03;;;;;;;21.90;9.65;;;;;;;13.62;100.00;100913.00;5019839;28;20107;-72
2023/01/02 00:12:28;;;;;;;21.42;8.73;;;;;;;13.39;100.00;100905.81;5016921;28;20060;-73
2023/01/02 00:14:54;;;;;;;25.27;9.63;;;;;;;13.65;100.00;100896.66;5022426;28;20036;-72
2023/01/02 00:17:19;;;;;;;21.52;9.65;;;;;;;13.37;100.00;100903.25;5015107;28;20088;-72
2023/01/02 00:19:45;;;;;;;17.48;8.10;;;;;;;13.58;100.00;100886.53;5041727;28;20118;-72
2023/01/02 00:22:10;;;;;;;20.88;7.90;;;;;;;13.51;100.00;100879.94;5039534;28;20065;-73
2023/01/02 00:24:35;;;;;;;24.58;7.78;;;;;;;13.39;100.00;100882.56;5037626;28;20049;-72
2023/01/02 00:27:01;;;;;;;19.20;7.32;;;;;;;13.62;100.00;100877.31;5036375;28;20044;-73
2023/01/02 00:29:26;;;;;;;19.70;7.65;;;;;;;13.60;100.00;100876.56;5036442;28;20954;-72
2023/01/02 00:31:52;;;;;;;27.77;8.25;;;;;;;13.80;100.00;100875.03;5036239;28;20055;-72
2023/01/02 00:34:17;;;;;;;17.65;7.35;;;;;;;13.94;100.00;100875.69;5031944;28;20056;-72
2023/01/02 00:36:43;;;;;;;15.05;7.38;;;;;;;13.67;100.00;100876.00;5011350;28;20046;-72
2023/01/02 00:39:08;;;;;;;21.55;7.53;;;;;;;13.73;100.00;100864.78;5023694;28;20049;-72
2023/01/02 00:41:34;;;;;;;15.52;6.70;;;;;;;13.67;100.00;100878.66;5030848;28;20102;-73
2023/01/02 00:43:59;;;;;;;17.30;7.35;;;;;;;13.99;100.00;100875.34;5038233;28;20091;-72
2023/01/02 00:46:25;;;;;;;15.70;6.57;;;;;;;13.68;100.00;100879.53;5033813;28;20056;-72
2023/01/02 00:48:50;;;;;;;21.02;7.03;;;;;;;13.89;100.00;100882.38;5027259;28;20403;-72
2023/01/02 00:51:16;;;;;;;14.68;6.75;;;;;;;13.59;100.00;100877.53;5033599;28;20134;-72
2023/01/02 00:53:41;;;;;;;17.85;7.32;;;;;;;13.63;100.00;100868.28;5036947;28;20045;-72
2023/01/02 00:56:07;;;;;;;19.83;7.03;;;;;;;14.09;100.00;100862.06;5041435;28;20055;-72
2023/01/02 00:58:32;;;;;;;13.73;6.63;;;;;;;13.67;100.00;100859.91;5032139;28;20049;-72
2023/01/02 01:00:57;;;;;;;17.40;7.30;;;;;;;13.46;100.00;100853.50;5037554;28;20128;-73
2023/01/02 01:03:23;;;;;;;16.85;6.90;;;;;;;13.63;100.00;100847.72;5034728;28;20080;-72
2023/01/02 01:05:48;;;;;;;19.95;7.88;;;;;;;14.02;100.00;100842.94;5043656;28;20053;-73
2023/01/02 01:08:14;;;;;;;19.55;7.10;;;;;;;13.98;100.00;100847.69;5034869;28;20065;-73
2023/01/02 01:10:39;;;;;;;16.73;7.82;;;;;;;13.84;100.00;100847.88;5038375;28;20056;-73
2023/01/02 01:13:05;;;;;;;14.77;6.78;;;;;;;13.75;100.00;100851.25;5044199;28;20041;-72
2023/01/02 01:15:32;;;;;;;19.60;7.72;;;;;;;13.97;100.00;100850.50;5035273;28;20048;-73
2023/01/02 01:17:58;;;;;;;18.15;7.60;;;;;;;13.84;100.00;100847.88;5032561;28;20059;-72
2023/01/02 01:20:23;;;;;;;16.65;7.28;;;;;;;13.95;100.00;100847.91;5043491;28;20041;-73
2023/01/02 01:22:49;;;;;;;14.57;6.80;;;;;;;14.05;100.00;100848.03;5038989;28;20072;-72
2023/01/02 01:25:14;;;;;;;17.25;7.70;;;;;;;13.87;100.00;100846.81;5016524;28;20098;-72
2023/01/02 01:27:40;;;;;;;20.35;6.60;;;;;;;14.00;100.00;100835.00;5023587;28;20048;-73
2023/01/02 01:30:06;;;;;;;20.45;7.47;;;;;;;14.24;100.00;100840.28;5042872;28;20111;-73
2023/01/02 01:32:33;;;;;;;23.25;6.88;;;;;;;13.87;100.00;100841.44;5035867;28;20447;-73
2023/01/02 01:34:59;;;;;;;15.20;7.45;;;;;;;13.94;100.00;100837.31;5030577;28;20289;-72
2023/01/02 01:37:24;;;;;;;11.80;6.18;;;;;;;14.33;100.00;100836.03;5032739;28;20049;-72
2023/01/02 01:39:50;;;;;;;17.70;7.80;;;;;;;14.21;100.00;100843.22;5042341;28;20052;-72
2023/01/02 01:42:16;;;;;;;19.98;7.20;;;;;;;14.24;100.00;100836.75;5038598;28;20053;-73
2023/01/02 01:44:53;;;;;;;17.48;7.72;;;;;;;14.42;100.00;100834.44;5037926;28;20553;-73
2023/01/02 01:47:37;;;;;;;17.45;6.82;;;;;;;14.53;100.00;100837.16;5031053;28;20541;-72
2023/01/02 01:50:11;;;;;;;13.88;7.18;;;;;;;14.10;100.00;100829.78;5039218;28;20048;-72
2023/01/02 01:52:43;;;;;;;17.13;7.32;;;;;;;14.22;100.00;100838.69;5038240;28;20049;-72
2023/01/02 01:55:20;;;;;;;22.88;7.25;;;;;;;14.32;100.00;100828.94;5032069;28;20068;-72
2023/01/02 01:57:50;;;;;;;18.13;7.03;;;;;;;13.98;100.00;100836.09;5035913;28;20060;-72
2023/01/02 02:00:16;;;;;;;21.55;6.25;;;;;;;13.96;100.00;100835.38;5036292;28;20049;-72
2023/01/02 02:02:45;;;;;;;18.48;7.05;;;;;;;13.91;100.00;100829.53;5015235;28;20815;-72
2023/01/02 02:05:17;;;;;;;27.88;7.95;;;;;;;13.80;100.00;100840.19;5037209;28;20055;-72
2023/01/02 02:07:58;;;;;;;14.00;6.32;;;;;;;13.77;100.00;100835.94;5008469;28;20053;-72
2023/01/02 02:10:24;;;;;;;20.20;8.52;;;;;;;13.84;100.00;100837.16;5035042;28;20099;-72
2023/01/02 02:12:49;;;;;;;15.20;6.05;;;;;;;13.73;100.00;100835.31;5010403;28;20458;-72
2023/01/02 02:15:19;;;;;;;16.83;6.75;;;;;;;13.67;100.00;100838.47;5033365;28;20053;-72
2023/01/02 02:18:06;;;;;;;16.05;6.88;;;;;;;13.86;100.00;100837.06;5032063;28;20041;-72
2023/01/02 02:20:49;;;;;;;14.35;6.82;;;;;;;14.02;100.00;100842.94;5030129;28;20106;-72
2023/01/02 02:23:48;;;;;;;11.63;5.78;;;;;;;14.08;100.00;100842.47;5032355;28;20087;-72
2023/01/02 02:26:54;;;;;;;14.35;6.40;;;;;;;14.07;100.00;100835.41;5013394;28;20597;-72
2023/01/02 02:29:57;;;;;;;24.98;9.25;;;;;;;13.92;100.00;100848.16;5031809;28;20064;-72
2023/01/02 02:32:32;;;;;;;13.20;7.20;;;;;;;14.00;100.00;100832.31;5011802;28;20049;-72
2023/01/02 02:35:13;;;;;;;18.73;6.75;;;;;;;13.87;100.00;100828.91;5033693;28;20052;-72
2023/01/02 02:37:59;;;;;;;23.05;6.93;;;;;;;13.85;100.00;100829.97;5023046;28;20075;-72
2023/01/02 02:40:27;;;;;;;13.15;7.30;;;;;;;13.80;100.00;100835.69;5034448;28;20045;-72
2023/01/02 02:43:09;;;;;;;16.92;6.45;;;;;;;13.95;100.00;100831.81;5032951;28;20136;-72
2023/01/02 02:46:02;;;;;;;20.70;7.40;;;;;;;13.87;100.00;100836.94;5031638;28;20041;-72
2023/01/02 02:48:46;;;;;;;14.88;6.47;;;;;;;14.04;100.00;100827.56;5038099;28;20049;-72
2023/01/02 02:51:29;;;;;;;18.63;7.15;;;;;;;14.06;100.00;100838.19;5036390;28;20049;-72
2023/01/02 02:54:02;;;;;;;17.90;6.45;;;;;;;14.03;100.00;100830.38;5031503;28;20144;-72
2023/01/02 02:56:28;;;;;;;20.50;5.95;;;;;;;14.29;100.00;100831.88;5021406;28;20050;-72
2023/01/02 02:58:55;;;;;;;31.13;8.05;;;;;;;14.19;100.00;100833.56;5026629;28;20133;-72
2023/01/02 03:01:26;;;;;;;17.20;6.22;;;;;;;13.94;100.00;100829.25;5048403;28;20051;-72
2023/01/02 03:03:51;;;;;;;22.92;5.63;;;;;;;14.21;100.00;100837.84;5036994;28;20199;-72
2023/01/02 03:06:30;;;;;;;18.92;5.90;;;;;;;14.00;100.00;100842.19;5041026;28;20561;-73
2023/01/02 03:09:15;;;;;;;11.32;5.60;;;;;;;14.29;100.00;100844.44;5038298;28;20056;-72
2023/01/02 03:12:08;;;;;;;16.92;6.57;;;;;;;14.07;100.00;100827.34;5035054;28;20053;-72
2023/01/02 03:14:55;;;;;;;12.18;6.72;;;;;;;14.11;100.00;100841.38;5022070;28;20125;-72
2023/01/02 03:17:56;;;;;;;16.88;6.03;;;;;;;14.08;100.00;100837.09;5032818;28;20049;-72
2023/01/02 03:20:26;;;;;;;15.13;6.60;;;;;;;14.23;100.00;100832.34;4999731;28;20817;-71
2023/01/02 03:22:59;;;;;;;17.33;6.25;;;;;;;14.04;100.00;100832.09;5036711;28;20584;-72
2023/01/02 03:25:24;;;;;;;14.88;5.57;;;;;;;14.02;100.00;100826.00;5036311;28;20821;-71
2023/01/02 03:27:55;;;;;;;18.45;6.53;;;;;;;14.22;100.00;100826.16;5031767;28;20118;-70
2023/01/02 03:30:21;;;;;;;12.13;5.35;;;;;;;14.24;100.00;100831.38;5025692;28;20783;-71
2023/01/02 03:32:55;;;;;;;17.77;5.53;;;;;;;14.05;100.00;100815.88;5016914;28;20053;-71
2023/01/02 03:35:26;;;;;;;15.75;6.10;;;;;;;14.06;100.00;100814.06;5019420;28;20067;-70
2023/01/02 03:37:57;;;;;;;17.83;5.88;;;;;;;14.26;100.00;100826.75;5034999;28;20068;-70
2023/01/02 03:40:30;;;;;;;14.25;5.78;;;;;;;14.25;100.00;100828.56;5033382;28;20052;-71
2023/01/02 03:43:02;;;;;;;15.60;5.53;;;;;;;13.91;100.00;100826.84;5021699;28;20041;-71
2023/01/02 03:45:31;;;;;;;12.97;6.90;;;;;;;14.12;100.00;100830.53;5035670;28;20047;-71
2023/01/02 03:48:11;;;;;;;13.43;5.22;;;;;;;13.97;100.00;100837.94;5032916;28;20049;-71
2023/01/02 03:50:53;;;;;;;10.93;5.22;;;;;;;14.04;100.00;100829.41;5034825;28;20092;-71
2023/01/02 03:53:20;;;;;;;15.52;7.05;;;;;;;14.04;100.00;100829.41;5022578;28;20057;-70
2023/01/02 03:56:02;;;;;;;21.83;6.47;;;;;;;14.16;100.00;100833.81;5040025;28;20076;-71
2023/01/02 03:59:09;;;;;;;23.90;6.85;;;;;;;14.34;100.00;100823.47;5041400;28;20127;-70
2023/01/02 04:01:45;;;;;;;12.60;5.30;;;;;;;14.06;100.00;100838.19;5027952;28;20048;-70
2023/01/02 04:04:44;;;;;;;19.75;5.60;;;;;;;14.11;100.00;100834.19;5027914;28;20051;-71
2023/01/02 04:07:15;;;;;;;10.65;5.32;;;;;;;14.21;100.00;100834.31;5031488;28;20482;-70
2023/01/02 04:09:44;;;;;;;17.77;6.22;;;;;;;14.35;100.00;100835.88;5031224;28;20042;-70
2023/01/02 04:12:14;;;;;;;15.18;5.13;;;;;;;13.98;100.00;100834.28;5033066;28;20053;-70
2023/01/02 04:14:45;;;;;;;20.67;5.55;;;;;;;14.03;100.00;100850.00;5036838;28;20052;-71
2023/01/02 04:17:15;;;;;;;12.68;6.10;;;;;;;13.87;100.00;100833.41;5024355;28;20073;-71
2023/01/02 04:19:46;;;;;;;14.90;6.35;;;;;;;14.30;100.00;100835.41;5037932;28;20075;-71
2023/01/02 04:22:20;;;;;;;13.48;5.75;;;;;;;14.05;100.00;100839.16;5040303;28;20495;-71
2023/01/02 04:24:52;;;;;;;15.38;6.93;;;;;;;14.28;100.00;100832.84;5037678;28;20076;-73
2023/01/02 04:27:31;;;;;;;19.60;6.63;;;;;;;14.18;100.00;100843.44;5037232;28;20391;-71
2023/01/02 04:29:56;;;;;;;13.88;5.43;;;;;;;14.12;100.00;100838.56;5037247;28;20203;-71
2023/01/02 04:32:30;;;;;;;16.80;5.78;;;;;;;14.00;100.00;100839.50;5028248;28;20541;-71
2023/01/02 04:34:57;;;;;;;16.90;5.68;;;;;;;14.18;100.00;100843.44;5040844;28;20044;-70
2023/01/02 04:37:32;;;;;;;16.23;6.38;;;;;;;14.10;100.00;100839.66;5040620;28;20051;-70
2023/01/02 04:40:02;;;;;;;15.80;5.88;;;;;;;14.15;100.00;100837.47;5028617;28;20601;-70
2023/01/02 04:42:28;;;;;;;13.57;6.00;;;;;;;13.98;100.00;100846.81;5041219;28;20056;-70
2023/01/02 04:44:54;;;;;;;19.38;5.68;;;;;;;14.07;100.00;100847.94;5037233;28;20053;-71
2023/01/02 04:47:19;;;;;;;11.32;5.57;;;;;;;14.13;100.00;100856.34;5034984;28;20053;-70
2023/01/02 04:49:45;;;;;;;12.80;5.40;;;;;;;13.94;100.00;100848.88;5034875;28;20033;-70
2023/01/02 04:52:10;;;;;;;15.95;5.13;;;;;;;14.06;100.00;100854.28;5035970;28;20513;-71
2023/01/02 04:54:35;;;;;;;20.88;7.90;;;;;;;14.12;100.00;100851.13;5034514;28;20040;-70
2023/01/02 04:57:01;;;;;;;11.23;5.65;;;;;;;14.04;100.00;100857.06;5034470;28;20061;-71
2023/01/02 04:59:26;;;;;;;14.65;5.75;;;;;;;14.11;100.00;100861.00;5030944;28;20053;-70
2023/01/02 05:01:53;;;;;;;20.10;7.63;;;;;;;14.35;100.00;100865.41;5035682;28;20502;-70
2023/01/02 05:04:18;;;;;;;11.73;5.68;;;;;;;14.14;100.00;100860.75;5033151;28;20064;-71
2023/01/02 05:06:44;;;;;;;17.17;6.65;;;;;;;14.15;100.00;100859.75;5026896;28;20037;-73
2023/01/02 05:09:09;;;;;;;15.77;6.05;;;;;;;13.99;100.00;100860.09;5033456;28;20774;-71
2023/01/02 05:11:35;;;;;;;14.52;5.50;;;;;;;14.13;100.00;100874.28;5036728;28;20037;-70
2023/01/02 05:14:00;;;;;;;17.35;5.50;;;;;;;14.05;100.00;100868.66;5038125;28;20049;-71
2023/01/02 05:16:26;;;;;;;21.25;6.88;;;;;;;14.21;100.00;100879.91;5035743;28;20616;-71
2023/01/02 05:18:51;;;;;;;17.33;6.40;;;;;;;13.97;100.00;100879.97;5039147;28;20421;-71
2023/01/02 05:24:02;;;;;;;21.52;6.22;;;;;;;13.88;100.00;100886.03;5029851;28;20064;-71
2023/01/02 05:26:31;;;;;;;20.50;5.82;;;;;;;13.84;100.00;100885.41;5033019;28;20053;-71
2023/01/02 05:28:58;;;;;;;15.70;5.97;;;;;;;13.90;100.00;100881.41;5018763;28;20421;-71
2023/01/02 05:31:23;;;;;;;22.27;5.68;;;;;;;13.91;100.00;100889.34;5035418;28;20045;-71
2023/01/02 05:33:51;;;;;;;18.73;6.15;;;;;;;13.93;100.00;100895.44;5039564;28;20045;-71
2023/01/02 05:36:16;;;;;;;20.65;6.95;;;;;;;14.10;100.00;100895.97;5033152;28;20524;-71
2023/01/02 05:38:42;;;;;;;18.38;6.40;;;;;;;14.23;100.00;100888.69;5036634;28;20064;-71
2023/01/02 05:41:07;;;;;;;20.63;6.70;;;;;;;14.30;100.00;100891.72;5033791;28;20056;-72
2023/01/02 05:43:35;;;;;;;20.30;7.93;;;;;;;14.24;100.00;100891.22;5039608;28;20055;-72
2023/01/02 05:46:15;;;;;;;16.55;6.50;;;;;;;14.22;100.00;100895.03;5039978;28;20056;-72
2023/01/02 05:48:43;;;;;;;18.35;7.50;;;;;;;14.21;100.00;100890.66;5038098;28;20048;-71
2023/01/02 05:51:11;;;;;;;16.27;7.63;;;;;;;14.30;100.00;100892.59;5036859;28;20126;-71
2023/01/02 05:53:37;;;;;;;18.02;7.63;;;;;;;13.85;100.00;100897.84;5037769;28;20052;-71
2023/01/02 05:56:12;;;;;;;26.60;8.80;;;;;;;14.17;100.00;100897.22;5038137;28;20045;-71
2023/01/02 05:58:40;;;;;;;24.10;7.55;;;;;;;14.22;100.00;100889.66;5039903;28;20124;-71
2023/01/02 06:01:11;;;;;;;16.77;8.40;;;;;;;14.41;100.00;100887.25;5037613;28;20052;-72
2023/01/02 06:03:37;;;;;;;20.17;7.80;;;;;;;14.28;100.00;100899.06;5039078;28;20629;-74
2023/01/02 06:06:04;;;;;;;16.90;7.47;;;;;;;14.29;100.00;100892.72;5037484;28;20045;-73
2023/01/02 06:08:29;;;;;;;20.92;7.85;;;;;;;14.30;100.00;100902.47;5031301;28;20132;-71
2023/01/02 06:10:55;;;;;;;19.02;7.15;;;;;;;14.32;100.00;100900.53;5037461;28;20126;-71
2023/01/02 06:13:20;;;;;;;14.27;5.82;;;;;;;14.29;100.00;100904.28;5037861;28;20060;-71
2023/01/02 06:15:46;;;;;;;10.40;5.90;;;;;;;14.29;100.00;100898.94;5038728;28;20081;-74
2023/01/02 06:18:11;;;;;;;12.52;5.93;;;;;;;14.03;100.00;100902.78;5030714;28;20041;-72
2023/01/02 06:20:37;;;;;;;15.88;5.93;;;;;;;14.16;100.00;100899.03;5038643;28;20045;-71
2023/01/02 06:23:02;;;;;;;14.38;6.00;;;;;;;13.99;100.00;100899.47;5041620;28;20518;-71
2023/01/02 06:25:28;;;;;;;17.10;6.18;;;;;;;14.29;100.00;100914.16;5034141;28;20037;-71
2023/01/02 06:27:53;;;;;;;11.63;6.35;;;;;;;14.44;100.00;100910.28;5035258;28;20041;-71
2023/01/02 06:30:18;;;;;;;14.18;6.93;;;;;;;14.14;100.00;100910.84;5038966;28;20453;-71
2023/01/02 06:32:44;;;;;;;12.05;5.97;;;;;;;14.36;100.00;100916.28;5036346;28;20151;-70
2023/01/02 06:35:09;;;;;;;17.75;5.60;;;;;;;14.18;100.00;100920.38;5030941;28;20042;-72
2023/01/02 06:37:35;;;;;;;8.10;4.70;;;;;;;14.48;100.00;100919.84;5041438;28;20052;-71
2023/01/02 06:40:00;;;;;;;7.47;3.72;;;;;;;14.24;100.00;100919.88;5040580;28;20041;-71
2023/01/02 06:42:26;;;;;;;13.18;4.63;;;;;;;14.36;100.00;100929.69;5038811;28;20448;-71
2023/01/02 06:44:51;;;;;;;8.65;4.50;;;;;;;14.32;100.00;100944.31;5037949;28;20049;-73
2023/01/02 06:47:17;;;;;;;9.48;4.55;;;;;;;14.36;100.00;100952.97;5039609;28;20584;-71
2023/01/02 06:49:42;;;;;;;10.15;4.78;;;;;;;14.32;100.00;100949.66;5038762;28;20049;-71
2023/01/02 06:52:07;;;;;;;11.23;4.70;;;;;;;14.40;100.00;100949.91;5037701;28;20075;-71
2023/01/02 06:54:33;;;;;;;7.30;4.68;;;;;;;14.31;100.00;100952.44;5040136;28;20055;-70
2023/01/02 06:56:58;;;;;;;13.32;5.00;;;;;;;14.06;100.00;100948.16;5042174;28;20067;-70
2023/01/02 06:59:24;;;;;;;13.35;4.18;;;;;;;14.34;100.00;100957.59;5036659;28;20053;-71
2023/01/02 07:01:49;;;;;;;11.77;4.47;;;;;;;14.12;100.00;100955.72;5035881;28;20033;-70
2023/01/02 07:04:16;;;;;;;10.93;4.82;;;;;;;14.29;100.00;100957.09;5041168;28;20049;-70
2023/01/02 07:06:41;;;;;;;13.00;4.38;;;;;;;13.90;100.00;100983.28;5037932;28;20041;-71
2023/01/02 07:09:07;;;;;;;14.35;4.70;;;;;;;13.82;100.00;100999.94;5027261;28;20407;-71
2023/01/02 07:11:34;;;;;;;13.10;4.22;;;;;;;13.84;100.00;101048.94;5040592;28;20065;-72
2023/01/02 07:14:00;;;;;;;3.60;2.53;;;;;;;13.45;100.00;101041.97;5035693;28;20072;-72
2023/01/02 07:16:25;;;;;;;5.32;1.50;;;;;;;13.12;100.00;101047.91;5040801;28;20045;-71
2023/01/02 07:18:52;;;;;;;1.52;1.20;;;;;;;13.06;100.00;101053.69;5032592;28;20038;-70
2023/01/02 07:21:17;;;;;;;0.88;0.82;;;;;;;12.94;100.00;101066.94;5028698;28;20041;-71
2023/01/02 07:23:43;;;;;;;1.52;0.80;;;;;;;13.01;100.00;101063.88;5035370;28;20056;-73
2023/01/02 07:26:09;;;;;;;2.20;0.80;;;;;;;12.73;100.00;101078.28;5036278;28;20087;-70
2023/01/02 07:28:36;;;;;;;0.85;0.60;;;;;;;12.73;100.00;101097.03;5042092;28;20067;-71
2023/01/02 07:31:05;;;;;;;1.08;0.70;;;;;;;12.75;100.00;101103.13;5029294;28;20076;-72
2023/01/02 07:33:31;;;;;;;2.90;0.70;;;;;;;12.57;100.00;101121.28;5040088;28;20079;-73
2023/01/02 07:36:00;;;;;;;2.85;0.60;;;;;;;12.25;100.00;101115.38;5033946;28;20064;-70
2023/01/02 07:38:26;;;;;;;1.55;0.70;;;;;;;12.53;100.00;101120.63;5041048;28;20056;-73
2023/01/02 07:40:51;;;;;;;1.10;0.90;;;;;;;12.32;100.00;101122.06;5034422;28;20049;-71
2023/01/02 07:43:17;;;;;;;5.80;0.98;;;;;;;12.14;100.00;101130.31;5040293;28;20048;-73
2023/01/02 07:45:43;;;;;;;1.20;1.10;;;;;;;12.29;100.00;101140.97;5038531;28;20049;-73
2023/01/02 07:48:08;;;;;;;1.83;1.10;;;;;;;12.23;100.00;101142.25;5033891;28;20048;-73
2023/01/02 07:50:33;;;;;;;1.40;1.23;;;;;;;12.31;100.00;101150.63;5035547;28;20049;-73
2023/01/02 07:52:59;;;;;;;1.75;1.30;;;;;;;12.29;100.00;101157.88;5038511;28;20041;-73
2023/01/02 07:55:24;;;;;;;1.65;1.50;;;;;;;12.38;100.00;101161.78;5039786;28;20041;-72
2023/01/02 07:57:50;;;;;;;2.28;1.80;;;;;;;12.44;100.00;101175.59;5032490;28;20429;-73
2023/01/02 08:00:17;;;;;;;2.30;1.92;;;;;;;12.35;100.00;101175.34;5041108;28;20045;-72
2023/01/02 08:02:42;;;;;;;2.85;2.30;;;;;;;12.42;100.00;101182.00;5037267;28;20045;-73
2023/01/02 08:05:09;;;;;;;2.97;2.20;;;;;;;12.10;100.00;101190.31;5035514;28;20140;-73
2023/01/02 08:07:34;;;;;;;3.58;2.58;;;;;;;12.47;100.00;101195.09;5041757;28;20036;-73
2023/01/02 08:10:00;;;;;;;5.88;2.22;;;;;;;12.54;100.00;101212.44;5032311;28;20509;-72
2023/01/02 08:12:26;;;;;;;3.75;2.60;;;;;;;12.67;100.00;101222.25;5034333;28;20048;-73
2023/01/02 08:14:52;;;;;;;5.32;3.53;;;;;;;12.48;100.00;101236.91;5036047;28;20076;-73
2023/01/02 08:17:17;;;;;;;6.20;4.00;;;;;;;12.21;100.00;101234.22;5038074;28;20056;-73
2023/01/02 08:19:43;;;;;;;7.90;4.15;;;;;;;12.20;100.00;101246.72;5037922;28;20048;-72
2023/01/02 08:22:08;;;;;;;6.82;4.35;;;;;;;12.43;100.00;101256.78;5040549;28;20053;-74
2023/01/02 08:24:34;;;;;;;8.35;3.97;;;;;;;12.18;100.00;101251.31;5039125;28;20045;-74
2023/01/02 08:26:59;;;;;;;6.72;3.90;;;;;;;12.24;100.00;101253.56;5039401;28;20040;-73
2023/01/02 08:29:24;;;;;;;8.23;4.95;;;;;;;12.13;100.00;101256.06;5032899;28;20056;-71
2023/01/02 08:31:57;;;;;;;8.35;5.45;;;;;;;12.29;100.00;101262.16;5037171;28;20049;-71
2023/01/02 08:34:23;;;;;;;11.73;6.88;;;;;;;12.17;100.00;101270.97;5027342;28;20867;-73
2023/01/02 08:36:48;;;;;;;14.43;8.32;;;;;;;12.31;100.00;101270.09;5037459;28;20041;-73
2023/01/02 08:39:14;;;;;;;13.55;8.30;;;;;;;12.76;100.00;101279.66;5036049;28;20057;-73
2023/01/02 08:41:39;;;;;;;18.15;10.60;;;;;;;12.24;100.00;101288.34;5035670;28;20041;-71
2023/01/02 08:44:06;;;;;;;15.05;9.45;;;;;;;12.52;100.00;101292.81;5036575;28;20047;-73
2023/01/02 08:46:33;;;;;;;16.52;9.68;;;;;;;12.35;100.00;101301.91;5018586;28;20056;-73
2023/01/02 08:48:59;;;;;;;17.35;10.88;;;;;;;12.64;100.00;101296.50;5035964;28;20048;-73
2023/01/02 08:51:25;;;;;;;16.35;10.63;;;;;;;12.59;100.00;101306.63;5037656;28;20045;-73
2023/01/02 08:53:50;;;;;;;24.13;12.75;;;;;;;12.36;100.00;101313.47;5034812;28;20097;-71
2023/01/02 08:56:21;;;;;;;20.10;12.55;;;;;;;12.31;100.00;101312.91;5029637;28;20060;-73
2023/01/02 08:58:55;;;;;;;21.42;12.95;;;;;;;12.19;100.00;101314.50;5035316;28;20888;-71
2023/01/02 09:01:22;;;;;;;23.67;14.27;;;;;;;12.47;100.00;101318.97;5033163;28;20049;-71
2023/01/02 09:03:48;;;;;;;21.05;12.95;;;;;;;12.65;100.00;101330.31;5033029;28;20048;-73
2023/01/02 09:06:14;;;;;;;24.17;13.95;;;;;;;12.40;100.00;101337.25;5031827;28;20465;-73
2023/01/02 09:08:40;;;;;;;20.92;13.18;;;;;;;12.36;100.00;101337.53;5036446;28;20048;-73
2023/01/02 09:11:10;;;;;;;17.52;11.93;;;;;;;12.04;100.00;101350.22;5031330;28;20057;-73
2023/01/02 09:13:36;;;;;;;18.45;10.93;;;;;;;12.17;100.00;101340.50;5036055;28;20046;-71
2023/01/02 09:16:01;;;;;;;17.85;11.45;;;;;;;12.35;100.00;101349.16;5042253;28;20033;-71
2023/01/02 09:18:27;;;;;;;15.88;9.90;;;;;;;12.36;100.00;101357.13;5043552;28;20052;-71
2023/01/02 09:20:53;;;;;;;17.30;10.20;;;;;;;12.29;100.00;101362.91;5033624;28;20064;-71
2023/01/02 09:23:18;;;;;;;15.73;8.88;;;;;;;12.41;100.00;101365.72;5041544;28;20079;-71
2023/01/02 09:25:43;;;;;;;13.60;8.70;;;;;;;12.40;100.00;101376.50;5036980;28;20041;-72
2023/01/02 09:28:09;;;;;;;15.02;8.50;;;;;;;12.18;100.00;101380.50;5031957;28;20041;-72
2023/01/02 09:30:35;;;;;;;13.07;8.43;;;;;;;11.98;100.00;101394.22;5027588;28;20054;-72
2023/01/02 09:33:00;;;;;;;12.02;7.63;;;;;;;12.17;100.00;101388.63;5032906;28;20084;-71
2023/01/02 09:35:26;;;;;;;13.45;8.38;;;;;;;12.23;100.00;101398.06;5038672;28;20081;-73
2023/01/02 09:37:51;;;;;;;12.15;7.95;;;;;;;12.08;100.00;101400.72;5032147;28;20057;-72
2023/01/02 09:40:17;;;;;;;13.00;8.45;;;;;;;12.30;100.00;101397.63;5037781;28;20048;-71
2023/01/02 09:42:43;;;;;;;13.65;8.13;;;;;;;12.47;100.00;101404.59;5041525;28;20218;-72
2023/01/02 09:45:10;;;;;;;10.30;7.05;;;;;;;12.37;100.00;101398.94;5036076;28;20041;-72
2023/01/02 09:47:38;;;;;;;13.13;7.80;;;;;;;12.64;100.00;101416.91;5041090;28;20053;-71
2023/01/02 09:50:11;;;;;;;11.50;6.53;;;;;;;12.18;100.00;101431.28;5034741;28;20037;-73
2023/01/02 09:52:43;;;;;;;7.22;5.25;;;;;;;12.11;100.00;101437.97;5037017;28;20053;-71
2023/01/02 09:55:29;;;;;;;6.22;4.55;;;;;;;12.60;100.00;101436.75;5040701;28;20123;-73
2023/01/02 09:58:25;;;;;;;7.63;3.83;;;;;;;12.43;100.00;101445.84;5041254;28;20158;-73
2023/01/02 10:00:51;;;;;;;4.60;3.65;;;;;;;12.47;100.00;101458.09;5031429;28;20045;-71
2023/01/02 10:03:42;;;;;;;5.93;3.80;;;;;;;12.41;100.00;101461.13;5041631;28;20795;-73
2023/01/02 10:06:15;;;;;;;7.05;3.63;;;;;;;12.09;100.00;101463.06;5035771;28;20060;-73
2023/01/02 10:08:57;;;;;;;4.05;3.13;;;;;;;12.64;100.00;101449.00;5040397;28;20048;-73
2023/01/02 10:11:45;;;;;;;5.50;3.13;;;;;;;12.78;100.00;101457.03;5055779;28;20061;-73
2023/01/02 10:14:52;;;;;;;5.28;3.60;;;;;;;12.80;99.65;101457.81;5042598;28;20037;-72
2023/01/02 10:17:19;;;;;;;4.82;3.20;;;;;;;12.54;99.84;101474.59;4998835;28;20116;-72
2023/01/02 10:20:05;;;;;;;12.50;3.72;;;;;;;12.53;100.00;101476.44;4999669;28;20141;-73
2023/01/02 10:22:43;;;;;;;8.18;2.72;;;;;;;12.27;100.00;101466.47;4997879;28;20128;-72
2023/01/02 10:25:33;;;;;;;5.15;2.88;;;;;;;12.46;100.00;101468.88;4992714;28;20163;-72
2023/01/02 10:28:24;;;;;;;5.13;2.70;;;;;;;12.73;98.59;101460.97;4998414;28;20041;-73
2023/01/02 10:30:56;;;;;;;3.10;2.53;;;;;;;12.36;99.03;101461.41;4980577;28;20145;-72
2023/01/02 10:33:46;;;;;;;5.65;2.58;;;;;;;12.27;98.72;101459.28;4996428;28;20672;-72
2023/01/02 10:36:26;;;;;;;4.18;2.00;;;;;;;12.50;96.39;101473.06;4994545;28;20104;-72
2023/01/02 10:39:00;;;;;;;6.85;2.70;;;;;;;12.59;97.13;101478.72;4993765;28;20105;-72
2023/01/02 10:41:28;;;;;;;5.13;2.30;;;;;;;12.38;98.43;101475.53;4979154;28;20053;-72
2023/01/02 10:43:57;;;;;;;6.70;2.72;;;;;;;12.33;97.34;101476.78;4997398;28;20090;-72
2023/01/02 10:46:28;;;;;;;3.92;1.88;;;;;;;12.75;96.33;101469.75;4997432;28;20085;-72
2023/01/02 10:48:53;;;;;;;5.28;2.55;;;;;;;12.93;95.28;101465.91;4994079;28;20168;-73
2023/01/02 10:51:19;;;;;;;4.30;2.50;;;;;;;12.64;95.67;101476.63;5018659;28;20490;-72
2023/01/02 10:54:03;;;;;;;14.65;7.78;;;;;;;12.82;95.19;101476.44;5038594;28;20041;-72
2023/01/02 10:56:33;;;;;;;12.00;6.60;;;;;;;13.05;94.42;101469.63;5047560;28;20545;-72
2023/01/02 10:58:59;;;;;;;7.60;4.03;;;;;;;12.81;96.03;101475.59;5035554;28;20056;-72
2023/01/02 11:01:25;;;;;;;5.00;3.33;;;;;;;12.71;97.90;101479.78;5037003;28;20045;-72
2023/01/02 11:03:54;;;;;;;5.07;3.35;;;;;;;12.76;97.73;101482.19;5038901;28;20060;-72
2023/01/02 11:06:32;;;;;;;4.95;3.40;;;;;;;13.07;95.79;101492.69;5025305;28;20037;-72
2023/01/02 11:09:17;;;;;;;8.18;3.63;;;;;;;12.70;98.58;101486.97;5040098;28;20099;-72
2023/01/02 11:11:54;;;;;;;5.22;3.30;;;;;;;12.64;97.19;101498.03;5038526;28;20061;-73
2023/01/02 11:14:28;;;;;;;7.57;3.33;;;;;;;12.99;95.08;101500.31;5030182;28;20788;-71
2023/01/02 11:16:57;;;;;;;4.53;3.22;;;;;;;12.61;95.46;101510.75;5037200;28;20202;-72
2023/01/02 11:19:22;;;;;;;7.53;3.63;;;;;;;12.66;96.05;101511.34;5038824;28;20056;-72
2023/01/02 11:21:51;;;;;;;5.80;2.42;;;;;;;13.00;93.35;101510.06;5035154;28;20041;-72
2023/01/02 11:24:18;;;;;;;5.55;2.72;;;;;;;12.78;93.47;101515.91;5036949;28;20222;-72
2023/01/02 11:26:47;;;;;;;8.88;3.30;;;;;;;13.40;91.71;101515.59;5036628;28;20033;-72